Terminal Aerodrome Forecast
Issued by NWS

Home | Current Version | Previous Version | Text Only | Print | Product List | Glossary On
Versions: 1 2 3 4 5 6 7 8 9 10 11 12 13 14 15 16 17 18 19 20 21 22
000
FTUS43 KDLH 221520 AAD
TAFHYR
TAF AMD
KHYR 221520Z 2215/2312 36009KT P6SM -TSRA SCT035CB BKN080 OVC110
      TEMPO 2215/2216 VRB17G27KT 1 1/2SM +TSRA BR SCT007 OVC011CB
     FM221600 16012G16KT P6SM SCT045 BKN200
     FM230300 18010KT P6SM BKN130 WS015/19040KT
     FM230900 19007KT 6SM BR BKN150 WS015/20040KT=

USA.gov is the U.S. government's official web portal to all federal, state and local government web resources and services.